Logan, UT (84341)

5:58 AM MDT on May 26, 2015 (GMT -0600)
MesoWest | | Change Station
CLOSE
Current Station
Personal Weather Station
Location: Logan, UT
Elevation: 4635 ft
Nearby Weather Stations

Elev 4635 ft 41.77 °N, 111.81 °W | Updated 43 minutes ago

Overcast
Overcast
47 °F
Feels Like 47 °F
N
1
Wind Variable Wind from ESE
Gusts 3.0 mph

Today
High -- | Low -- °F
--% Chance of Precip.
Yesterday
High -- | Low -- °F
Precip. -- in
5:58 AM 8:50 PM
First Quarter, 57% visible
Pressure 29.94 in
Visibility 10.0 miles
Clouds Few 7500 ft
Overcast 9000 ft
Windchill 47 °F
Dew Point 45 °F
Humidity 93%
Rainfall in
Snow Depth Not available.
UV 0 out of 12
Pollen 5.80 out of 12
Air Quality Not available.
Flu Activity Sporadic
METAR KLGU 261151Z AUTO 15006KT 10SM FEW075 OVC090 09/06 A3000 RMK AO2 SLP138 70006 T00940061 10094 20067 53006 TSNO $

More Conditions Fewer Conditions

Pressure 29.94 in
Visibility 10.0 miles
Clouds Few 7500 ft
Overcast 9000 ft
Windchill 47 °F
Dew Point 45 °F
Humidity 93%
Rainfall in
Snow Depth Not available.
UV 0 out of 12
Pollen 5.80 out of 12
Air Quality Not available.
Flu Activity Sporadic
METAR KLGU 261151Z AUTO 15006KT 10SM FEW075 OVC090 09/06 A3000 RMK AO2 SLP138 70006 T00940061 10094 20067 53006 TSNO $

More Conditions Fewer Conditions

10-Day Weather Forecast

Almanac

Astronomy

May. 26, 2015 Rise Set
Actual Time
Civil Twilight
Nautical Twilight
Astronomical Twilight
Moon
Length of Visible Light
Length of Day
Tomorrow will be .
, % of the Moon is Illuminated

Today's Extremes

State Highs State Lows

Community

WunderPhotos

Upload Photos

1,824,304 photos uploaded!

WunderBlogs® & News

Nearby

Air Quality

  Air Quality AQ Index Pollutant
Not available.

Snow Depth

Station Depth Elevation

Earthquake Activity

City Distance Mag. Time & Date
Minimum magnitude displayed is 2.5.

Coastal Water Temperatures

Place Temperature

Stations

Nearby Weather Stations

Station Location Temp. Windchill Dew Point Humidity Wind Precip. Elev Updated Type